createdAt,value
2023-01-02T00:02:40.450Z,93.99
2023-01-02T00:06:35.059Z,93.88
2023-01-02T00:10:28.301Z,93.91
2023-01-02T00:14:21.151Z,93.91
2023-01-02T00:18:14.034Z,93.95
2023-01-02T00:22:06.554Z,93.85
2023-01-02T00:25:59.383Z,93.82
2023-01-02T00:29:51.970Z,93.87
2023-01-02T00:33:44.896Z,93.87
2023-01-02T00:37:37.669Z,93.53
2023-01-02T00:41:30.431Z,93.57
2023-01-02T00:45:23.074Z,93.62
2023-01-02T00:49:15.955Z,93.56
2023-01-02T00:53:08.643Z,93.57
2023-01-02T00:57:01.249Z,93.69
2023-01-02T01:00:53.965Z,93.93
2023-01-02T01:04:46.745Z,93.99
2023-01-02T01:08:39.358Z,94.18
2023-01-02T01:12:32.219Z,94.34
2023-01-02T01:16:26.657Z,94.34
2023-01-02T01:20:19.656Z,94.11
2023-01-02T01:24:12.450Z,94.26
2023-01-02T01:28:04.917Z,94.56
2023-01-02T01:31:57.841Z,94.69
2023-01-02T01:35:50.528Z,94.87
2023-01-02T01:39:43.105Z,94.50
2023-01-02T01:43:40.131Z,94.63
2023-01-02T01:47:39.101Z,94.78
2023-01-02T01:51:43.375Z,94.89
2023-01-02T01:55:42.124Z,94.81
2023-01-02T01:59:35.592Z,95.11
2023-01-02T02:03:31.218Z,94.92
2023-01-02T02:07:23.927Z,95.07
2023-01-02T02:11:17.807Z,95.21
2023-01-02T02:15:13.436Z,95.28
2023-01-02T02:19:36.467Z,95.36
2023-01-02T02:24:07.833Z,95.39
2023-01-02T02:28:29.197Z,95.56
2023-01-02T02:32:37.215Z,95.58
2023-01-02T02:37:08.851Z,95.68
2023-01-02T02:41:29.455Z,95.73
2023-01-02T02:45:45.593Z,95.60
2023-01-02T02:49:50.556Z,95.60
2023-01-02T02:53:49.441Z,95.74
2023-01-02T02:57:44.295Z,95.91
2023-01-02T03:01:39.585Z,95.88
2023-01-02T03:05:38.001Z,95.95
2023-01-02T03:09:58.509Z,96.04
2023-01-02T03:14:05.136Z,96.01
2023-01-02T03:18:32.045Z,96.02
2023-01-02T03:22:33.543Z,96.05
2023-01-02T03:26:31.258Z,96.06
2023-01-02T03:30:24.087Z,96.03
2023-01-02T03:34:25.764Z,95.94
2023-01-02T03:38:27.491Z,96.14
2023-01-02T03:42:37.320Z,96.16
2023-01-02T03:46:38.975Z,95.99
2023-01-02T03:50:41.214Z,95.95
2023-01-02T03:54:33.919Z,95.81
2023-01-02T03:59:01.460Z,95.84
2023-01-02T04:03:06.744Z,95.87
2023-01-02T04:07:04.781Z,95.65
2023-01-02T04:11:00.047Z,95.66
2023-01-02T04:15:08.209Z,95.65
2023-01-02T04:19:07.879Z,95.60
2023-01-02T04:23:10.769Z,95.68
2023-01-02T04:27:12.526Z,95.51
2023-01-02T04:31:12.335Z,95.59
2023-01-02T04:35:14.763Z,95.59
2023-01-02T04:39:08.207Z,95.68
2023-01-02T04:43:01.026Z,95.71
2023-01-02T04:46:53.666Z,95.69
2023-01-02T04:50:46.474Z,95.63
2023-01-02T04:54:38.980Z,95.76
2023-01-02T04:58:31.651Z,95.42
2023-01-02T05:02:24.363Z,95.58
2023-01-02T05:06:17.252Z,95.41
2023-01-02T05:10:10.332Z,95.28
2023-01-02T05:14:07.406Z,95.29
2023-01-02T05:18:00.632Z,95.24
2023-01-02T05:22:12.195Z,95.11
2023-01-02T05:26:11.278Z,95.34
2023-01-02T05:30:04.917Z,95.32
2023-01-02T05:33:58.865Z,95.50
2023-01-02T05:37:51.614Z,95.04
2023-01-02T05:41:44.306Z,95.06
2023-01-02T05:45:36.980Z,95.19
2023-01-02T05:49:29.927Z,94.91
2023-01-02T05:53:22.486Z,94.80
2023-01-02T05:57:15.982Z,95.00
2023-01-02T06:01:18.545Z,94.97
2023-01-02T06:05:11.184Z,95.16
2023-01-02T06:09:05.794Z,95.22
2023-01-02T06:12:58.381Z,95.21
2023-01-02T06:16:51.082Z,95.30
2023-01-02T06:20:43.710Z,95.17
2023-01-02T06:24:36.332Z,95.21
2023-01-02T06:28:29.039Z,95.21
2023-01-02T06:32:21.636Z,95.29
2023-01-02T06:36:17.643Z,94.93
2023-01-02T06:40:11.277Z,94.80
2023-01-02T06:44:04.080Z,94.96
2023-01-02T06:47:58.213Z,95.27
2023-01-02T06:51:51.160Z,94.86
2023-01-02T06:55:54.857Z,95.04
2023-01-02T06:59:47.693Z,95.29
2023-01-02T07:03:40.638Z,95.19
2023-01-02T07:07:33.654Z,95.33
2023-01-02T07:11:27.045Z,95.00
2023-01-02T07:15:19.777Z,94.86
2023-01-02T07:19:12.687Z,95.21
2023-01-02T07:23:06.082Z,94.28
2023-01-02T07:26:58.717Z,94.75
2023-01-02T07:30:51.782Z,94.26
2023-01-02T07:34:44.718Z,94.46
2023-01-02T07:38:38.529Z,94.51
2023-01-02T07:42:31.053Z,94.69
2023-01-02T07:46:24.597Z,94.38
2023-01-02T07:50:17.280Z,94.43
2023-01-02T07:54:10.481Z,94.32
2023-01-02T07:58:04.140Z,94.40
2023-01-02T08:01:56.958Z,94.25
2023-01-02T08:05:50.014Z,94.69
2023-01-02T08:09:42.744Z,94.85
2023-01-02T08:13:35.826Z,94.39
2023-01-02T08:17:30.365Z,94.42
2023-01-02T08:21:24.130Z,94.28
2023-01-02T08:25:16.803Z,94.32
2023-01-02T08:29:09.667Z,94.28
2023-01-02T08:33:02.709Z,94.42
2023-01-02T08:36:55.522Z,94.43
2023-01-02T08:40:48.279Z,93.94
2023-01-02T08:44:41.016Z,94.34
2023-01-02T08:48:34.870Z,93.85
2023-01-02T08:52:27.305Z,93.60
2023-01-02T08:56:28.887Z,93.40
2023-01-02T09:00:21.704Z,93.70
2023-01-02T09:04:14.416Z,93.38
2023-01-02T09:08:06.941Z,93.44
2023-01-02T09:12:00.853Z,93.42
2023-01-02T09:15:54.027Z,93.73
2023-01-02T09:19:47.313Z,93.12
2023-01-02T09:23:39.951Z,93.21
2023-01-02T09:27:32.623Z,93.00
2023-01-02T09:31:26.481Z,92.16
2023-01-02T09:35:19.073Z,92.53
2023-01-02T09:39:12.931Z,92.77
2023-01-02T09:43:05.660Z,92.26
2023-01-02T09:47:08.757Z,93.06
2023-01-02T09:51:07.506Z,92.49
2023-01-02T09:55:01.384Z,92.89
2023-01-02T09:59:05.978Z,92.82
2023-01-02T10:03:08.592Z,93.07
2023-01-02T10:07:08.665Z,93.46
2023-01-02T10:11:27.539Z,93.56
2023-01-02T10:15:45.430Z,93.50
2023-01-02T10:19:51.318Z,93.63
2023-01-02T10:23:55.399Z,93.15
2023-01-02T10:28:10.282Z,93.36
2023-01-02T10:32:11.517Z,92.60
2023-01-02T10:36:04.496Z,92.86
2023-01-02T10:39:58.062Z,93.15
2023-01-02T10:43:56.336Z,93.20
2023-01-02T10:47:48.926Z,92.54
2023-01-02T10:51:48.456Z,92.21
2023-01-02T10:55:45.139Z,92.64
2023-01-02T10:59:38.687Z,92.31
2023-01-02T11:03:31.592Z,92.00
2023-01-02T11:07:26.272Z,92.09
2023-01-02T11:11:20.214Z,92.17
2023-01-02T11:15:14.390Z,91.61
2023-01-02T11:19:07.866Z,91.73
2023-01-02T11:23:02.899Z,91.72
2023-01-02T11:26:56.756Z,91.96
2023-01-02T11:31:00.462Z,91.57
2023-01-02T11:35:01.079Z,91.80
2023-01-02T11:38:56.933Z,91.40
2023-01-02T11:43:10.744Z,91.72
2023-01-02T11:47:04.495Z,92.23
2023-01-02T11:50:57.845Z,92.53
2023-01-02T11:54:59.605Z,92.37
2023-01-02T11:59:13.671Z,92.21
2023-01-02T12:03:22.499Z,92.53
2023-01-02T12:08:01.415Z,92.89
2023-01-02T12:12:24.569Z,92.03
2023-01-02T12:16:17.418Z,91.93
2023-01-02T12:20:41.397Z,92.46
2023-01-02T12:24:46.774Z,92.39
2023-01-02T12:29:04.588Z,92.05
2023-01-02T12:33:28.094Z,92.12
2023-01-02T12:37:41.909Z,92.52
2023-01-02T12:42:01.299Z,92.78
2023-01-02T12:46:15.392Z,92.61
2023-01-02T12:50:08.240Z,92.15
2023-01-02T12:54:18.925Z,91.96
2023-01-02T12:58:42.486Z,92.36
2023-01-02T13:03:12.854Z,91.78
2023-01-02T13:07:14.475Z,92.12
2023-01-02T13:11:10.342Z,92.47
2023-01-02T13:15:14.750Z,92.74
2023-01-02T13:19:17.004Z,92.27
2023-01-02T13:23:31.706Z,92.61
2023-01-02T13:27:25.264Z,92.21
2023-01-02T13:31:45.439Z,91.81
2023-01-02T13:35:37.819Z,92.23
2023-01-02T13:39:45.106Z,92.07
2023-01-02T13:43:39.289Z,92.81
2023-01-02T13:47:36.695Z,92.31
2023-01-02T13:51:30.550Z,92.32
2023-01-02T13:55:25.384Z,92.40
2023-01-02T13:59:42.460Z,92.63
2023-01-02T14:03:35.630Z,92.77
2023-01-02T14:07:29.798Z,92.87
2023-01-02T14:11:31.368Z,92.34
2023-01-02T14:16:19.209Z,92.22
2023-01-02T14:20:28.080Z,92.12
2023-01-02T14:24:36.005Z,92.66
2023-01-02T14:28:30.417Z,93.01
2023-01-02T14:32:39.111Z,93.07
2023-01-02T14:36:52.548Z,93.00
2023-01-02T14:40:47.346Z,93.11
2023-01-02T14:44:46.649Z,92.98
2023-01-02T14:49:25.708Z,93.50
2023-01-02T14:53:26.767Z,93.37
2023-01-02T14:57:33.484Z,93.67
2023-01-02T15:01:42.968Z,93.59
2023-01-02T15:05:48.208Z,93.42
2023-01-02T15:09:46.979Z,93.83
2023-01-02T15:14:05.697Z,94.05
2023-01-02T15:17:53.296Z,94.09
2023-01-02T15:21:47.327Z,94.33
2023-01-02T15:25:41.613Z,94.40
2023-01-02T15:29:34.654Z,94.03
2023-01-02T15:33:34.599Z,94.38
2023-01-02T15:37:27.289Z,94.08
2023-01-02T15:41:20.876Z,94.77
2023-01-02T15:45:17.731Z,94.81
2023-01-02T15:49:14.712Z,94.66
2023-01-02T15:53:15.365Z,94.86
2023-01-02T15:57:14.681Z,95.15
2023-01-02T16:01:10.933Z,94.96
2023-01-02T16:05:17.338Z,94.79
2023-01-02T16:09:36.515Z,94.54
2023-01-02T16:13:54.979Z,94.80
2023-01-02T16:17:48.554Z,94.90
2023-01-02T16:21:41.788Z,94.97
2023-01-02T16:25:37.239Z,95.04
2023-01-02T16:29:30.584Z,94.94
2023-01-02T16:33:30.548Z,94.97
2023-01-02T16:37:31.885Z,95.04
2023-01-02T16:41:34.268Z,94.94
2023-01-02T16:45:27.969Z,94.95
2023-01-02T16:49:22.936Z,94.86
2023-01-02T16:53:24.033Z,94.76
2023-01-02T16:57:21.415Z,94.73
2023-01-02T17:01:18.307Z,94.79
2023-01-02T17:05:22.012Z,94.51
2023-01-02T17:09:14.743Z,94.75
2023-01-02T17:13:07.493Z,94.92
2023-01-02T17:17:00.823Z,95.00
2023-01-02T17:20:53.345Z,94.58
2023-01-02T17:24:46.243Z,94.68
2023-01-02T17:28:38.951Z,94.90
2023-01-02T17:32:32.596Z,94.81
2023-01-02T17:36:25.315Z,94.84
2023-01-02T17:40:19.603Z,94.72
2023-01-02T17:44:12.532Z,94.97
2023-01-02T17:48:10.897Z,94.95
2023-01-02T17:52:04.390Z,94.78
2023-01-02T17:56:20.501Z,95.10
2023-01-02T18:00:14.486Z,94.82
2023-01-02T18:04:07.317Z,94.91
2023-01-02T18:08:00.121Z,94.86
2023-01-02T18:11:53.213Z,94.66
2023-01-02T18:15:46.035Z,94.56
2023-01-02T18:19:39.207Z,94.51
2023-01-02T18:23:32.214Z,94.46
2023-01-02T18:27:29.533Z,94.23
2023-01-02T18:31:22.696Z,94.60
2023-01-02T18:35:47.110Z,94.62
2023-01-02T18:39:42.922Z,94.62
2023-01-02T18:43:37.273Z,94.62
2023-01-02T18:47:38.397Z,94.54
2023-01-02T18:51:31.666Z,94.79
2023-01-02T18:55:27.983Z,94.77
2023-01-02T18:59:32.692Z,94.94
2023-01-02T19:03:27.894Z,94.72
2023-01-02T19:07:30.988Z,94.95
2023-01-02T19:11:52.528Z,94.95
2023-01-02T19:15:51.644Z,94.79
2023-01-02T19:19:44.912Z,94.82
2023-01-02T19:24:14.312Z,94.69
2023-01-02T19:28:22.424Z,94.71
2023-01-02T19:32:15.049Z,94.99
2023-01-02T19:36:24.233Z,94.81
2023-01-02T19:40:22.299Z,94.81
2023-01-02T19:44:15.586Z,94.96
2023-01-02T19:48:12.518Z,94.89
2023-01-02T19:52:10.348Z,94.77
2023-01-02T19:56:04.375Z,94.79
2023-01-02T19:59:59.499Z,94.99
2023-01-02T20:03:53.815Z,95.05
2023-01-02T20:07:47.767Z,94.89
2023-01-02T20:12:07.215Z,95.52
2023-01-02T20:16:01.449Z,95.33
2023-01-02T20:19:55.807Z,95.00
2023-01-02T20:23:56.152Z,95.22
2023-01-02T20:28:07.989Z,95.46
2023-01-02T20:32:02.502Z,95.18
2023-01-02T20:35:56.032Z,95.01
2023-01-02T20:39:53.685Z,95.21
2023-01-02T20:43:48.525Z,94.79
2023-01-02T20:47:43.220Z,95.10
2023-01-02T20:51:37.867Z,95.03
2023-01-02T20:55:31.955Z,94.65
2023-01-02T20:59:28.000Z,94.86
2023-01-02T21:03:22.153Z,95.09
2023-01-02T21:07:16.876Z,95.24
2023-01-02T21:11:11.490Z,95.07
2023-01-02T21:15:05.448Z,94.94
2023-01-02T21:19:01.119Z,94.84
2023-01-02T21:22:55.877Z,95.22
2023-01-02T21:26:49.096Z,95.13
2023-01-02T21:30:43.867Z,95.34
2023-01-02T21:34:37.159Z,95.45
2023-01-02T21:38:30.411Z,95.59
2023-01-02T21:42:23.777Z,95.84
2023-01-02T21:46:16.745Z,95.05
2023-01-02T21:50:10.110Z,95.08
2023-01-02T21:54:02.936Z,95.46
2023-01-02T21:58:13.006Z,95.57
2023-01-02T22:02:07.795Z,95.34
2023-01-02T22:06:00.365Z,95.33
2023-01-02T22:09:53.130Z,95.56
2023-01-02T22:13:45.702Z,95.56
2023-01-02T22:17:38.360Z,95.70
2023-01-02T22:21:31.524Z,95.63
2023-01-02T22:25:24.222Z,95.42
2023-01-02T22:29:19.223Z,95.49
2023-01-02T22:33:12.867Z,95.49
2023-01-02T22:37:05.852Z,95.41
2023-01-02T22:40:59.362Z,95.72
2023-01-02T22:44:52.388Z,95.91
2023-01-02T22:48:45.696Z,95.35
2023-01-02T22:52:38.495Z,94.76
2023-01-02T22:56:31.665Z,94.43
2023-01-02T23:00:24.444Z,94.23
2023-01-02T23:04:23.595Z,94.04
2023-01-02T23:08:16.493Z,93.60
2023-01-02T23:12:09.591Z,93.50
2023-01-02T23:16:21.440Z,93.69
2023-01-02T23:20:14.043Z,93.58
2023-01-02T23:24:07.390Z,94.00
2023-01-02T23:28:00.202Z,94.15
2023-01-02T23:31:53.729Z,93.82
2023-01-02T23:35:46.488Z,93.75
2023-01-02T23:39:39.848Z,94.14
2023-01-02T23:43:32.912Z,94.33
2023-01-02T23:47:25.339Z,94.50
2023-01-02T23:51:21.451Z,94.77
2023-01-02T23:55:14.383Z,95.03
2023-01-02T23:59:10.687Z,95.06
